Terminal Aerodrome Forecast
Issued by NWS

Home | Current Version | Previous Version | Text Only | Print | Product List | Glossary On
Versions: 1 2 3 4 5 6 7 8 9 10 11 12 13 14 15 16
714
FTUS45 KABQ 242341
TAFFMN
TAF
KFMN 242341Z 2500/2524 34013KT P6SM BKN070 BKN090
     FM250300 VRB06KT P6SM SCT100
     FM250700 08006KT P6SM SKC
     FM251500 10006KT P6SM SKC
     FM251900 19006KT P6SM SKC=

USA.gov is the U.S. government's official web portal to all federal, state and local government web resources and services.